createdAt,value
2023-02-27T00:00:21.253Z,19.50
2023-02-27T00:03:22.942Z,19.80
2023-02-27T00:06:24.405Z,19.50
2023-02-27T00:09:26.200Z,19.50
2023-02-27T00:12:30.000Z,19.80
2023-02-27T00:15:31.677Z,19.80
2023-02-27T00:18:33.145Z,19.80
2023-02-27T00:21:36.819Z,19.60
2023-02-27T00:24:38.504Z,19.90
2023-02-27T00:27:40.964Z,19.60
2023-02-27T00:30:42.454Z,19.70
2023-02-27T00:33:44.371Z,19.70
2023-02-27T00:36:45.852Z,19.80
2023-02-27T00:39:47.339Z,19.90
2023-02-27T00:42:49.403Z,19.80
2023-02-27T00:45:50.796Z,19.90
2023-02-27T00:48:52.197Z,19.50
2023-02-27T00:51:53.700Z,19.70
2023-02-27T00:54:55.824Z,19.70
2023-02-27T00:57:57.831Z,19.80
2023-02-27T01:00:59.365Z,19.80
2023-02-27T01:04:02.768Z,19.80
2023-02-27T01:07:05.160Z,19.50
2023-02-27T01:10:08.546Z,19.40
2023-02-27T01:13:13.261Z,19.80
2023-02-27T01:16:14.715Z,19.80
2023-02-27T01:19:16.282Z,19.70
2023-02-27T01:22:18.365Z,19.80
2023-02-27T01:25:19.659Z,19.60
2023-02-27T01:28:22.035Z,19.60
2023-02-27T01:31:23.599Z,19.30
2023-02-27T01:34:24.956Z,19.70
2023-02-27T01:37:26.453Z,19.40
2023-02-27T01:40:28.187Z,19.70
2023-02-27T01:43:30.268Z,19.70
2023-02-27T01:46:33.093Z,19.70
2023-02-27T01:49:34.714Z,19.50
2023-02-27T01:52:38.219Z,19.60
2023-02-27T01:55:40.089Z,19.60
2023-02-27T01:58:43.573Z,19.40
2023-02-27T02:01:45.386Z,19.70
2023-02-27T02:04:47.736Z,19.60
2023-02-27T02:07:51.028Z,19.70
2023-02-27T02:10:53.887Z,19.50
2023-02-27T02:13:57.986Z,19.50
2023-02-27T02:17:11.836Z,19.80
2023-02-27T02:20:39.810Z,19.60
2023-02-27T02:24:02.912Z,19.70
2023-02-27T02:27:18.152Z,19.40
2023-02-27T02:30:56.189Z,21.30
2023-02-27T02:34:21.337Z,19.60
2023-02-27T02:37:48.784Z,19.50
2023-02-27T02:40:59.822Z,19.70
2023-02-27T02:44:14.447Z,19.60
2023-02-27T02:47:25.890Z,19.70
2023-02-27T02:50:34.530Z,19.80
2023-02-27T02:53:44.950Z,19.40
2023-02-27T02:56:53.328Z,19.60
2023-02-27T03:00:00.841Z,19.60
2023-02-27T03:03:08.191Z,19.40
2023-02-27T03:06:14.274Z,19.40
2023-02-27T03:09:21.611Z,19.50
2023-02-27T03:12:28.462Z,19.60
2023-02-27T03:15:33.220Z,19.70
2023-02-27T03:18:39.594Z,19.30
2023-02-27T03:21:45.925Z,19.50
2023-02-27T03:24:52.418Z,19.70
2023-02-27T03:28:00.238Z,19.60
2023-02-27T03:31:10.353Z,19.50
2023-02-27T03:34:17.343Z,19.60
2023-02-27T03:37:26.664Z,19.40
2023-02-27T03:40:33.099Z,19.60
2023-02-27T03:43:45.586Z,19.60
2023-02-27T03:46:47.204Z,19.90
2023-02-27T03:49:50.580Z,19.50
2023-02-27T03:52:52.557Z,19.60
2023-02-27T03:55:56.783Z,19.30
2023-02-27T03:58:58.951Z,19.60
2023-02-27T04:02:02.308Z,19.70
2023-02-27T04:05:05.074Z,19.50
2023-02-27T04:08:41.730Z,19.60
2023-02-27T04:12:02.902Z,19.20
2023-02-27T04:15:13.432Z,19.50
2023-02-27T04:18:29.895Z,19.50
2023-02-27T04:21:37.675Z,19.40
2023-02-27T04:24:51.278Z,19.40
2023-02-27T04:28:00.770Z,19.50
2023-02-27T04:31:10.035Z,19.60
2023-02-27T04:34:19.370Z,19.60
2023-02-27T04:37:26.272Z,19.60
2023-02-27T04:40:34.089Z,19.60
2023-02-27T04:43:38.369Z,19.50
2023-02-27T04:46:43.290Z,19.70
2023-02-27T04:49:48.474Z,19.40
2023-02-27T04:52:53.152Z,19.70
2023-02-27T04:55:57.986Z,19.60
2023-02-27T04:59:05.274Z,19.50
2023-02-27T05:02:11.428Z,19.20
2023-02-27T05:05:16.023Z,19.60
2023-02-27T05:08:25.528Z,19.70
2023-02-27T05:11:32.331Z,19.60
2023-02-27T05:14:37.509Z,19.60
2023-02-27T05:17:45.654Z,19.30
2023-02-27T05:20:55.884Z,19.30
2023-02-27T05:24:08.771Z,19.20
2023-02-27T05:27:17.948Z,19.40
2023-02-27T05:30:23.481Z,19.40
2023-02-27T05:33:30.567Z,19.30
2023-02-27T05:36:36.038Z,19.40
2023-02-27T05:39:40.195Z,19.50
2023-02-27T05:42:45.532Z,19.70
2023-02-27T05:45:51.217Z,19.40
2023-02-27T05:48:56.522Z,19.60
2023-02-27T05:52:01.977Z,19.30
2023-02-27T05:55:10.462Z,19.50
2023-02-27T05:58:18.535Z,19.30
2023-02-27T06:01:19.949Z,19.50
2023-02-27T06:04:21.990Z,19.40
2023-02-27T06:07:23.542Z,19.40
2023-02-27T06:10:25.280Z,19.20
2023-02-27T06:13:26.671Z,19.60
2023-02-27T06:16:28.590Z,19.60
2023-02-27T06:19:30.789Z,19.20
2023-02-27T06:22:32.617Z,19.50
2023-02-27T06:25:34.600Z,19.40
2023-02-27T06:28:35.966Z,19.50
2023-02-27T06:31:37.362Z,19.50
2023-02-27T06:34:39.296Z,19.20
2023-02-27T06:37:40.884Z,19.50
2023-02-27T06:40:43.758Z,19.30
2023-02-27T06:43:45.005Z,19.40
2023-02-27T06:46:46.458Z,19.50
2023-02-27T06:49:48.648Z,19.50
2023-02-27T06:52:50.265Z,19.30
2023-02-27T06:55:51.520Z,19.40
2023-02-27T06:58:52.926Z,19.40
2023-02-27T07:01:54.454Z,19.30
2023-02-27T07:04:56.804Z,19.50
2023-02-27T07:07:58.736Z,19.10
2023-02-27T07:11:00.221Z,19.50
2023-02-27T07:14:01.597Z,19.60
2023-02-27T07:17:03.802Z,19.20
2023-02-27T07:20:07.668Z,19.50
2023-02-27T07:23:10.227Z,19.40
2023-02-27T07:26:11.788Z,19.50
2023-02-27T07:29:14.039Z,19.80
2023-02-27T07:32:15.657Z,19.80
2023-02-27T07:35:17.830Z,19.70
2023-02-27T07:38:21.664Z,19.60
2023-02-27T07:41:30.400Z,19.90
2023-02-27T07:44:34.837Z,19.70
2023-02-27T07:47:36.420Z,20.30
2023-02-27T07:50:38.703Z,20.10
2023-02-27T07:53:40.188Z,20.20
2023-02-27T07:56:41.747Z,20.00
2023-02-27T07:59:43.096Z,20.00
2023-02-27T08:02:44.577Z,19.90
2023-02-27T08:05:46.440Z,20.40
2023-02-27T08:08:47.852Z,20.20
2023-02-27T08:11:49.404Z,20.50
2023-02-27T08:14:51.391Z,19.70
2023-02-27T08:17:52.687Z,20.60
2023-02-27T08:20:55.179Z,20.30
2023-02-27T08:23:56.664Z,20.30
2023-02-27T08:26:57.981Z,20.40
2023-02-27T08:29:59.305Z,20.60
2023-02-27T08:33:01.006Z,20.40
2023-02-27T08:36:03.025Z,20.40
2023-02-27T08:39:04.529Z,20.30
2023-02-27T08:42:06.549Z,20.60
2023-02-27T08:45:08.446Z,20.40
2023-02-27T08:48:13.255Z,20.40
2023-02-27T08:51:15.104Z,20.30
2023-02-27T08:54:16.623Z,20.80
2023-02-27T08:57:17.853Z,20.40
2023-02-27T09:00:19.641Z,20.70
2023-02-27T09:03:21.658Z,20.50
2023-02-27T09:06:25.868Z,20.60
2023-02-27T09:09:27.697Z,20.40
2023-02-27T09:12:28.948Z,20.40
2023-02-27T09:15:31.775Z,20.60
2023-02-27T09:18:33.126Z,20.80
2023-02-27T09:21:36.554Z,20.50
2023-02-27T09:24:37.880Z,20.80
2023-02-27T09:27:39.147Z,20.80
2023-02-27T09:30:40.522Z,20.80
2023-02-27T09:33:41.973Z,20.70
2023-02-27T09:36:43.832Z,20.80
2023-02-27T09:39:46.413Z,20.80
2023-02-27T09:42:47.987Z,20.80
2023-02-27T09:45:51.634Z,20.70
2023-02-27T09:48:54.044Z,20.80
2023-02-27T09:51:55.907Z,20.80
2023-02-27T09:54:57.622Z,20.80
2023-02-27T09:58:03.655Z,20.90
2023-02-27T10:01:07.864Z,21.00
2023-02-27T10:04:23.801Z,20.90
2023-02-27T10:07:28.463Z,21.00
2023-02-27T10:10:32.990Z,20.90
2023-02-27T10:13:40.227Z,20.80
2023-02-27T10:16:41.920Z,20.80
2023-02-27T10:19:45.450Z,20.80
2023-02-27T10:22:49.946Z,21.00
2023-02-27T10:25:51.438Z,21.00
2023-02-27T10:28:52.750Z,20.90
2023-02-27T10:31:58.096Z,20.80
2023-02-27T10:35:06.689Z,20.80
2023-02-27T10:38:12.166Z,21.10
2023-02-27T10:41:15.047Z,21.00
2023-02-27T10:44:17.863Z,21.10
2023-02-27T10:47:20.763Z,20.60
2023-02-27T10:50:24.625Z,20.90
2023-02-27T10:53:27.133Z,20.80
2023-02-27T10:56:28.947Z,21.10
2023-02-27T10:59:32.096Z,21.10
2023-02-27T11:02:35.448Z,21.30
2023-02-27T11:05:36.772Z,21.00
2023-02-27T11:08:38.900Z,21.30
2023-02-27T11:11:40.377Z,20.70
2023-02-27T11:14:47.869Z,21.20
2023-02-27T11:17:49.226Z,21.20
2023-02-27T11:20:50.542Z,21.40
2023-02-27T11:23:54.116Z,21.20
2023-02-27T11:26:56.357Z,21.20
2023-02-27T11:29:59.027Z,21.30
2023-02-27T11:33:00.747Z,21.30
2023-02-27T11:36:02.502Z,21.20
2023-02-27T11:39:04.463Z,21.20
2023-02-27T11:42:17.376Z,21.20
2023-02-27T11:46:05.316Z,21.40
2023-02-27T11:48:48.426Z,21.10
2023-02-27T11:51:54.016Z,21.30
2023-02-27T11:54:58.020Z,21.10
2023-02-27T11:58:01.456Z,21.20
2023-02-27T12:01:04.925Z,21.00
2023-02-27T12:04:10.018Z,21.50
2023-02-27T12:07:14.423Z,20.80
2023-02-27T12:10:18.618Z,21.30
2023-02-27T12:13:22.021Z,21.40
2023-02-27T12:16:27.005Z,21.30
2023-02-27T12:19:30.345Z,21.10
2023-02-27T12:22:32.969Z,21.30
2023-02-27T12:25:40.361Z,21.20
2023-02-27T12:28:47.591Z,21.40
2023-02-27T12:31:50.927Z,21.10
2023-02-27T12:34:53.706Z,21.40
2023-02-27T12:37:55.445Z,21.30
2023-02-27T12:41:01.672Z,21.30
2023-02-27T12:44:11.868Z,20.90
2023-02-27T12:47:20.635Z,21.20
2023-02-27T12:50:23.385Z,21.30
2023-02-27T12:53:31.411Z,21.30
2023-02-27T12:56:39.198Z,21.40
2023-02-27T12:59:47.246Z,21.20
2023-02-27T13:02:53.529Z,21.20
2023-02-27T13:05:58.569Z,21.40
2023-02-27T13:09:05.696Z,21.40
2023-02-27T13:12:10.746Z,20.90
2023-02-27T13:15:16.382Z,21.40
2023-02-27T13:18:25.160Z,21.40
2023-02-27T13:21:28.399Z,21.50
2023-02-27T13:24:30.712Z,21.40
2023-02-27T13:27:34.452Z,21.40
2023-02-27T13:30:38.338Z,21.60
2023-02-27T13:33:43.034Z,21.20
2023-02-27T13:36:45.959Z,21.40
2023-02-27T13:39:52.582Z,21.50
2023-02-27T13:42:59.537Z,21.50
2023-02-27T13:46:01.337Z,21.70
2023-02-27T13:49:28.689Z,21.60
2023-02-27T13:52:31.993Z,21.60
2023-02-27T13:55:34.473Z,21.60
2023-02-27T13:58:36.417Z,21.60
2023-02-27T14:01:38.302Z,21.60
2023-02-27T14:04:46.683Z,21.60
2023-02-27T14:07:52.739Z,21.70
2023-02-27T14:10:56.208Z,21.50
2023-02-27T14:14:00.352Z,21.60
2023-02-27T14:17:02.995Z,21.40
2023-02-27T14:20:05.837Z,21.90
2023-02-27T14:23:14.742Z,21.60
2023-02-27T14:26:18.803Z,21.50
2023-02-27T14:29:22.901Z,21.40
2023-02-27T14:32:25.594Z,21.70
2023-02-27T14:35:27.399Z,21.30
2023-02-27T14:38:30.129Z,21.80
2023-02-27T14:41:37.789Z,21.60
2023-02-27T14:44:42.194Z,21.60
2023-02-27T14:47:44.934Z,21.70
2023-02-27T14:50:53.498Z,21.70
2023-02-27T14:54:04.015Z,21.60
2023-02-27T14:57:06.064Z,21.70
2023-02-27T15:00:16.789Z,21.50
2023-02-27T15:03:19.671Z,21.70
2023-02-27T15:06:23.072Z,21.40
2023-02-27T15:09:26.514Z,21.70
2023-02-27T15:12:28.240Z,21.20
2023-02-27T15:15:30.626Z,21.80
2023-02-27T15:18:32.585Z,21.60
2023-02-27T15:21:38.070Z,21.70
2023-02-27T15:24:49.656Z,21.40
2023-02-27T15:27:51.685Z,21.50
2023-02-27T15:30:53.884Z,21.60
2023-02-27T15:33:56.372Z,21.70
2023-02-27T15:37:00.001Z,21.50
2023-02-27T15:40:01.788Z,22.00
2023-02-27T15:43:03.392Z,21.70
2023-02-27T15:46:04.828Z,21.90
2023-02-27T15:49:06.998Z,21.70
2023-02-27T15:52:14.537Z,22.10
2023-02-27T15:55:21.094Z,21.70
2023-02-27T15:58:23.819Z,21.80
2023-02-27T16:01:28.641Z,21.30
2023-02-27T16:04:32.501Z,21.80
2023-02-27T16:07:39.458Z,21.30
2023-02-27T16:10:42.401Z,21.80
2023-02-27T16:13:43.726Z,21.90
2023-02-27T16:16:52.979Z,22.00
2023-02-27T16:19:55.927Z,21.90
2023-02-27T16:23:00.716Z,21.90
2023-02-27T16:26:04.150Z,21.50
2023-02-27T16:29:06.329Z,22.00
2023-02-27T16:32:17.372Z,21.60
2023-02-27T16:35:20.731Z,22.00
2023-02-27T16:38:22.134Z,21.80
2023-02-27T16:41:23.955Z,22.10
2023-02-27T16:44:25.705Z,21.50
2023-02-27T16:47:28.098Z,21.70
2023-02-27T16:50:32.063Z,21.60
2023-02-27T16:53:33.303Z,21.90
2023-02-27T16:56:38.377Z,21.30
2023-02-27T16:59:40.291Z,21.90
2023-02-27T17:02:42.272Z,21.80
2023-02-27T17:05:44.200Z,21.80
2023-02-27T17:08:45.607Z,21.80
2023-02-27T17:11:46.918Z,21.90
2023-02-27T17:14:48.319Z,21.80
2023-02-27T17:17:49.632Z,22.00
2023-02-27T17:20:51.687Z,22.00
2023-02-27T17:23:53.053Z,22.00
2023-02-27T17:26:54.415Z,22.00
2023-02-27T17:29:55.683Z,22.00
2023-02-27T17:32:59.756Z,21.80
2023-02-27T17:36:02.619Z,22.10
2023-02-27T17:39:04.230Z,21.60
2023-02-27T17:42:05.612Z,22.10
2023-02-27T17:45:07.766Z,21.90
2023-02-27T17:48:08.985Z,21.90
2023-02-27T17:51:12.891Z,21.30
2023-02-27T17:54:14.255Z,21.90
2023-02-27T17:57:15.545Z,21.60
2023-02-27T18:00:17.028Z,22.20
2023-02-27T18:03:18.413Z,21.60
2023-02-27T18:06:20.932Z,21.90
2023-02-27T18:09:22.309Z,22.10
2023-02-27T18:12:24.541Z,21.90
2023-02-27T18:15:26.147Z,21.90
2023-02-27T18:18:27.522Z,21.90
2023-02-27T18:21:29.594Z,21.50
2023-02-27T18:24:30.923Z,22.00
2023-02-27T18:27:32.320Z,21.70
2023-02-27T18:30:36.605Z,21.90
2023-02-27T18:33:37.927Z,21.20
2023-02-27T18:36:39.895Z,22.00
2023-02-27T18:39:41.938Z,21.60
2023-02-27T18:42:45.312Z,21.70
2023-02-27T18:45:46.781Z,21.60
2023-02-27T18:48:48.025Z,21.70
2023-02-27T18:51:49.957Z,21.60
2023-02-27T18:54:51.222Z,21.40
2023-02-27T18:57:52.682Z,21.70
2023-02-27T19:00:54.394Z,21.50
2023-02-27T19:04:02.458Z,21.40
2023-02-27T19:07:04.374Z,21.40
2023-02-27T19:10:07.131Z,21.40
2023-02-27T19:13:08.682Z,21.50
2023-02-27T19:16:09.972Z,21.30
2023-02-27T19:19:11.483Z,21.50
2023-02-27T19:22:13.456Z,21.10
2023-02-27T19:25:14.751Z,21.60
2023-02-27T19:28:15.974Z,21.20
2023-02-27T19:31:17.325Z,21.00
2023-02-27T19:34:18.693Z,21.20
2023-02-27T19:37:20.598Z,21.60
2023-02-27T19:40:22.085Z,21.30
2023-02-27T19:43:23.336Z,21.30
2023-02-27T19:46:26.411Z,21.10
2023-02-27T19:49:27.738Z,21.10
2023-02-27T19:52:29.688Z,21.20
2023-02-27T19:55:30.924Z,20.80
2023-02-27T19:58:32.916Z,21.10
2023-02-27T20:01:35.417Z,21.30
2023-02-27T20:04:36.780Z,21.00
2023-02-27T20:07:39.761Z,21.10
2023-02-27T20:10:41.879Z,21.20
2023-02-27T20:13:44.073Z,20.90
2023-02-27T20:16:45.927Z,21.00
2023-02-27T20:19:47.444Z,20.70
2023-02-27T20:22:51.595Z,21.10
2023-02-27T20:25:52.855Z,20.60
2023-02-27T20:28:55.834Z,21.00
2023-02-27T20:31:57.577Z,20.50
2023-02-27T20:34:58.990Z,20.40
2023-02-27T20:38:01.011Z,20.90
2023-02-27T20:41:02.254Z,20.80
2023-02-27T20:44:03.997Z,20.70
2023-02-27T20:47:05.538Z,20.30
2023-02-27T20:50:07.218Z,20.70
2023-02-27T20:53:09.120Z,20.80
2023-02-27T20:56:10.761Z,20.50
2023-02-27T20:59:12.958Z,20.40
2023-02-27T21:02:14.232Z,20.80
2023-02-27T21:05:15.782Z,20.60
2023-02-27T21:08:17.774Z,20.20
2023-02-27T21:11:20.219Z,20.70
2023-02-27T21:14:22.576Z,20.70
2023-02-27T21:17:25.360Z,20.70
2023-02-27T21:20:26.617Z,20.40
2023-02-27T21:23:28.595Z,20.20
2023-02-27T21:26:32.781Z,20.50
2023-02-27T21:29:35.525Z,20.40
2023-02-27T21:32:36.774Z,20.70
2023-02-27T21:35:38.111Z,20.60
2023-02-27T21:38:40.269Z,20.20
2023-02-27T21:41:41.844Z,20.20
2023-02-27T21:44:43.217Z,20.50
2023-02-27T21:47:44.495Z,20.10
2023-02-27T21:50:45.750Z,20.20
2023-02-27T21:53:49.068Z,20.50
2023-02-27T21:56:50.356Z,20.20
2023-02-27T21:59:51.699Z,20.10
2023-02-27T22:02:53.000Z,20.40
2023-02-27T22:05:54.295Z,20.50
2023-02-27T22:08:56.753Z,20.40
2023-02-27T22:11:58.120Z,20.40
2023-02-27T22:14:59.350Z,20.40
2023-02-27T22:18:00.686Z,20.20
2023-02-27T22:21:03.856Z,20.40
2023-02-27T22:24:06.789Z,20.40
2023-02-27T22:27:08.788Z,20.30
2023-02-27T22:30:10.914Z,20.50
2023-02-27T22:33:12.199Z,20.40
2023-02-27T22:36:14.414Z,20.10
2023-02-27T22:39:16.420Z,20.30
2023-02-27T22:42:17.662Z,20.30
2023-02-27T22:45:18.923Z,20.30
2023-02-27T22:48:20.153Z,20.20
2023-02-27T22:51:23.971Z,20.10
2023-02-27T22:54:25.932Z,20.80
2023-02-27T22:57:27.243Z,20.20
2023-02-27T23:00:28.497Z,20.20
2023-02-27T23:03:29.800Z,20.40
2023-02-27T23:06:32.265Z,19.90
2023-02-27T23:09:34.155Z,20.30
2023-02-27T23:12:35.516Z,20.20
2023-02-27T23:15:37.870Z,19.90
2023-02-27T23:18:39.404Z,20.40
2023-02-27T23:21:41.054Z,20.10
2023-02-27T23:24:43.055Z,20.40
2023-02-27T23:27:44.398Z,20.00
2023-02-27T23:30:45.717Z,20.10
2023-02-27T23:33:46.982Z,20.30
2023-02-27T23:36:48.252Z,19.80
2023-02-27T23:39:50.161Z,20.30
2023-02-27T23:42:51.516Z,19.80
2023-02-27T23:45:52.923Z,19.90
2023-02-27T23:48:54.288Z,20.20
2023-02-27T23:51:55.535Z,20.20
2023-02-27T23:54:57.546Z,19.70
2023-02-27T23:58:00.185Z,20.20
